sensor_id;sensor_type;location;lat;lon;timestamp;pressure;altitude;pressure_sealevel;temperature;humidity
59787;BME280;45672;51.612;5.536;2024-01-10T00:01:03;102908.75;;;-5.25;68.40
59787;BME280;45672;51.612;5.536;2024-01-10T00:03:28;102908.75;;;-5.27;67.93
59787;BME280;45672;51.612;5.536;2024-01-10T00:05:54;102923.47;;;-5.23;68.43
59787;BME280;45672;51.612;5.536;2024-01-10T00:08:20;102907.00;;;-5.23;68.13
59787;BME280;45672;51.612;5.536;2024-01-10T00:10:45;102894.91;;;-5.21;68.35
59787;BME280;45672;51.612;5.536;2024-01-10T00:13:10;102884.53;;;-5.24;67.72
59787;BME280;45672;51.612;5.536;2024-01-10T00:15:36;102891.44;;;-5.22;68.15
59787;BME280;45672;51.612;5.536;2024-01-10T00:18:01;102889.69;;;-5.04;67.39
59787;BME280;45672;51.612;5.536;2024-01-10T00:20:26;102891.44;;;-5.14;67.91
59787;BME280;45672;51.612;5.536;2024-01-10T00:22:52;102887.94;;;-5.07;67.02
59787;BME280;45672;51.612;5.536;2024-01-10T00:25:17;102889.69;;;-5.09;67.49
59787;BME280;45672;51.612;5.536;2024-01-10T00:27:42;102888.84;;;-5.18;68.46
59787;BME280;45672;51.612;5.536;2024-01-10T00:30:08;102875.88;;;-5.26;67.69
59787;BME280;45672;51.612;5.536;2024-01-10T00:32:33;102876.72;;;-5.16;67.83
59787;BME280;45672;51.612;5.536;2024-01-10T00:34:59;102888.84;;;-5.25;68.56
59787;BME280;45672;51.612;5.536;2024-01-10T00:37:24;102887.13;;;-5.24;68.35
59787;BME280;45672;51.612;5.536;2024-01-10T00:39:49;102875.88;;;-5.25;67.42
59787;BME280;45672;51.612;5.536;2024-01-10T00:42:15;102873.28;;;-5.17;67.03
59787;BME280;45672;51.612;5.536;2024-01-10T00:44:40;102883.66;;;-5.23;67.68
59787;BME280;45672;51.612;5.536;2024-01-10T00:47:05;102881.94;;;-5.24;68.72
59787;BME280;45672;51.612;5.536;2024-01-10T00:49:31;102881.91;;;-5.13;67.21
59787;BME280;45672;51.612;5.536;2024-01-10T00:51:56;102875.00;;;-5.24;68.30
59787;BME280;45672;51.612;5.536;2024-01-10T00:54:21;102881.06;;;-5.26;68.45
59787;BME280;45672;51.612;5.536;2024-01-10T00:56:46;102873.28;;;-5.23;69.00
59787;BME280;45672;51.612;5.536;2024-01-10T00:59:12;102873.28;;;-5.26;68.45
59787;BME280;45672;51.612;5.536;2024-01-10T01:01:37;102868.09;;;-5.26;68.81
59787;BME280;45672;51.612;5.536;2024-01-10T01:04:02;102871.56;;;-5.33;68.48
59787;BME280;45672;51.612;5.536;2024-01-10T01:06:28;102871.56;;;-5.29;68.60
59787;BME280;45672;51.612;5.536;2024-01-10T01:08:53;102863.78;;;-5.30;68.42
59787;BME280;45672;51.612;5.536;2024-01-10T01:11:18;102868.97;;;-5.30;69.22
59787;BME280;45672;51.612;5.536;2024-01-10T01:13:43;102864.66;;;-5.31;69.45
59787;BME280;45672;51.612;5.536;2024-01-10T01:16:10;102872.44;;;-5.33;69.43
59787;BME280;45672;51.612;5.536;2024-01-10T01:18:35;102869.84;;;-5.33;69.76
59787;BME280;45672;51.612;5.536;2024-01-10T01:21:00;102876.75;;;-5.37;70.23
59787;BME280;45672;51.612;5.536;2024-01-10T01:23:26;102869.84;;;-5.39;69.97
59787;BME280;45672;51.612;5.536;2024-01-10T01:25:51;102868.97;;;-5.38;70.08
59787;BME280;45672;51.612;5.536;2024-01-10T01:28:16;102868.09;;;-5.40;69.95
59787;BME280;45672;51.612;5.536;2024-01-10T01:30:42;102866.41;;;-5.40;69.65
59787;BME280;45672;51.612;5.536;2024-01-10T01:33:07;102875.91;;;-5.34;69.80
59787;BME280;45672;51.612;5.536;2024-01-10T01:35:32;102872.44;;;-5.36;70.20
59787;BME280;45672;51.612;5.536;2024-01-10T01:37:58;102872.47;;;-5.47;70.64
59787;BME280;45672;51.612;5.536;2024-01-10T01:40:23;102865.53;;;-5.51;71.54
59787;BME280;45672;51.612;5.536;2024-01-10T01:42:48;102868.13;;;-5.51;71.63
59787;BME280;45672;51.612;5.536;2024-01-10T01:45:14;102865.53;;;-5.51;71.08
59787;BME280;45672;51.612;5.536;2024-01-10T01:47:40;102867.25;;;-5.41;71.03
59787;BME280;45672;51.612;5.536;2024-01-10T01:50:06;102858.63;;;-5.50;71.29
59787;BME280;45672;51.612;5.536;2024-01-10T01:52:32;102862.94;;;-5.48;70.94
59787;BME280;45672;51.612;5.536;2024-01-10T01:55:00;102855.19;;;-5.54;72.04
59787;BME280;45672;51.612;5.536;2024-01-10T01:57:25;102850.84;;;-5.50;71.46
59787;BME280;45672;51.612;5.536;2024-01-10T01:59:51;102853.44;;;-5.54;71.77
59787;BME280;45672;51.612;5.536;2024-01-10T02:02:16;102865.53;;;-5.57;72.43
59787;BME280;45672;51.612;5.536;2024-01-10T02:04:42;102857.78;;;-5.52;71.84
59787;BME280;45672;51.612;5.536;2024-01-10T02:07:07;102857.75;;;-5.59;72.21
59787;BME280;45672;51.612;5.536;2024-01-10T02:09:32;102848.25;;;-5.55;72.23
59787;BME280;45672;51.612;5.536;2024-01-10T02:11:58;102851.72;;;-5.59;72.57
59787;BME280;45672;51.612;5.536;2024-01-10T02:14:23;102852.56;;;-5.60;72.06
59787;BME280;45672;51.612;5.536;2024-01-10T02:16:49;102857.75;;;-5.57;72.76
59787;BME280;45672;51.612;5.536;2024-01-10T02:19:18;102856.91;;;-5.61;73.08
59787;BME280;45672;51.612;5.536;2024-01-10T02:21:44;102852.56;;;-5.63;73.26
59787;BME280;45672;51.612;5.536;2024-01-10T02:24:09;102850.84;;;-5.64;72.98
59787;BME280;45672;51.612;5.536;2024-01-10T02:26:35;102850.84;;;-5.71;73.76
59787;BME280;45672;51.612;5.536;2024-01-10T02:29:00;102859.50;;;-5.68;73.73
59787;BME280;45672;51.612;5.536;2024-01-10T02:31:25;102853.44;;;-5.67;73.44
59787;BME280;45672;51.612;5.536;2024-01-10T02:33:52;102858.63;;;-5.60;72.82
59787;BME280;45672;51.612;5.536;2024-01-10T02:36:17;102852.59;;;-5.65;73.69
59787;BME280;45672;51.612;5.536;2024-01-10T02:38:43;102854.31;;;-5.65;73.73
59787;BME280;45672;51.612;5.536;2024-01-10T02:41:08;102850.84;;;-5.60;73.63
59787;BME280;45672;51.612;5.536;2024-01-10T02:43:33;102848.25;;;-5.66;74.60
59787;BME280;45672;51.612;5.536;2024-01-10T02:45:59;102844.81;;;-5.69;75.07
59787;BME280;45672;51.612;5.536;2024-01-10T02:48:25;102839.63;;;-5.73;74.52
59787;BME280;45672;51.612;5.536;2024-01-10T02:50:50;102845.66;;;-5.67;74.62
59787;BME280;45672;51.612;5.536;2024-01-10T02:53:15;102843.06;;;-5.71;74.76
59787;BME280;45672;51.612;5.536;2024-01-10T02:55:41;102836.16;;;-5.58;73.59
59787;BME280;45672;51.612;5.536;2024-01-10T02:58:07;102836.16;;;-5.72;74.61
59787;BME280;45672;51.612;5.536;2024-01-10T03:00:32;102845.66;;;-5.66;74.77
59787;BME280;45672;51.612;5.536;2024-01-10T03:02:57;102828.41;;;-5.68;74.82
59787;BME280;45672;51.612;5.536;2024-01-10T03:05:22;102822.34;;;-5.74;74.94
59787;BME280;45672;51.612;5.536;2024-01-10T03:07:48;102817.16;;;-5.72;75.26
59787;BME280;45672;51.612;5.536;2024-01-10T03:10:13;102810.25;;;-5.68;74.92
59787;BME280;45672;51.612;5.536;2024-01-10T03:12:38;102818.00;;;-5.64;74.80
59787;BME280;45672;51.612;5.536;2024-01-10T03:15:05;102815.44;;;-5.65;74.92
59787;BME280;45672;51.612;5.536;2024-01-10T03:17:31;102818.00;;;-5.70;74.77
59787;BME280;45672;51.612;5.536;2024-01-10T03:19:59;102814.53;;;-5.66;75.12
59787;BME280;45672;51.612;5.536;2024-01-10T03:22:24;102812.81;;;-5.70;75.44
59787;BME280;45672;51.612;5.536;2024-01-10T03:24:49;102796.41;;;-5.74;75.84
59787;BME280;45672;51.612;5.536;2024-01-10T03:27:14;102814.53;;;-5.69;75.00
59787;BME280;45672;51.612;5.536;2024-01-10T03:29:40;102798.13;;;-5.76;75.66
59787;BME280;45672;51.612;5.536;2024-01-10T03:32:05;102800.72;;;-5.66;75.81
59787;BME280;45672;51.612;5.536;2024-01-10T03:34:31;102801.59;;;-5.71;75.47
59787;BME280;45672;51.612;5.536;2024-01-10T03:36:56;102791.22;;;-5.67;75.27
59787;BME280;45672;51.612;5.536;2024-01-10T03:39:22;102795.53;;;-5.68;75.41
59787;BME280;45672;51.612;5.536;2024-01-10T03:41:47;102801.59;;;-5.71;75.89
59787;BME280;45672;51.612;5.536;2024-01-10T03:44:13;102801.59;;;-5.74;76.34
59787;BME280;45672;51.612;5.536;2024-01-10T03:46:39;102805.03;;;-5.75;76.79
59787;BME280;45672;51.612;5.536;2024-01-10T03:49:05;102802.44;;;-5.75;76.36
59787;BME280;45672;51.612;5.536;2024-01-10T03:51:30;102796.41;;;-5.77;76.66
59787;BME280;45672;51.612;5.536;2024-01-10T03:53:55;102795.53;;;-5.77;76.63
59787;BME280;45672;51.612;5.536;2024-01-10T03:56:21;102791.22;;;-5.74;77.05
59787;BME280;45672;51.612;5.536;2024-01-10T03:58:46;102790.34;;;-5.76;76.75
59787;BME280;45672;51.612;5.536;2024-01-10T04:01:13;102791.22;;;-5.71;76.20
59787;BME280;45672;51.612;5.536;2024-01-10T04:03:39;102795.53;;;-5.79;76.74
59787;BME280;45672;51.612;5.536;2024-01-10T04:06:07;102789.50;;;-5.76;76.95
59787;BME280;45672;51.612;5.536;2024-01-10T04:08:32;102770.47;;;-5.81;77.30
59787;BME280;45672;51.612;5.536;2024-01-10T04:10:58;102776.56;;;-5.82;77.88
59787;BME280;45672;51.612;5.536;2024-01-10T04:13:23;102770.50;;;-5.80;77.27
59787;BME280;45672;51.612;5.536;2024-01-10T04:15:48;102760.16;;;-5.95;78.22
59787;BME280;45672;51.612;5.536;2024-01-10T04:18:14;102767.91;;;-5.88;78.09
59787;BME280;45672;51.612;5.536;2024-01-10T04:20:40;102768.75;;;-5.73;77.32
59787;BME280;45672;51.612;5.536;2024-01-10T04:23:05;102767.88;;;-5.81;77.86
59787;BME280;45672;51.612;5.536;2024-01-10T04:25:31;102772.22;;;-5.85;78.19
59787;BME280;45672;51.612;5.536;2024-01-10T04:27:56;102767.88;;;-5.81;78.06
59787;BME280;45672;51.612;5.536;2024-01-10T04:30:22;102765.31;;;-5.84;77.61
59787;BME280;45672;51.612;5.536;2024-01-10T04:32:48;102766.19;;;-5.85;78.32
59787;BME280;45672;51.612;5.536;2024-01-10T04:35:13;102754.91;;;-5.81;77.85
59787;BME280;45672;51.612;5.536;2024-01-10T04:37:38;102758.41;;;-5.84;77.78
59787;BME280;45672;51.612;5.536;2024-01-10T04:40:04;102756.66;;;-5.83;77.91
59787;BME280;45672;51.612;5.536;2024-01-10T04:42:30;102759.25;;;-5.85;78.46
59787;BME280;45672;51.612;5.536;2024-01-10T04:44:56;102765.31;;;-5.92;78.86
59787;BME280;45672;51.612;5.536;2024-01-10T04:47:21;102775.69;;;-5.91;78.92
59787;BME280;45672;51.612;5.536;2024-01-10T04:49:46;102761.91;;;-5.97;79.11
59787;BME280;45672;51.612;5.536;2024-01-10T04:52:12;102773.09;;;-5.94;79.54
59787;BME280;45672;51.612;5.536;2024-01-10T04:54:37;102768.81;;;-5.99;78.97
59787;BME280;45672;51.612;5.536;2024-01-10T04:57:03;102773.13;;;-5.97;79.67
59787;BME280;45672;51.612;5.536;2024-01-10T04:59:28;102764.50;;;-6.02;80.30
59787;BME280;45672;51.612;5.536;2024-01-10T05:01:54;102777.44;;;-5.99;79.79
59787;BME280;45672;51.612;5.536;2024-01-10T05:04:19;102767.94;;;-6.01;80.22
59787;BME280;45672;51.612;5.536;2024-01-10T05:06:45;102776.59;;;-6.01;80.78
59787;BME280;45672;51.612;5.536;2024-01-10T05:09:10;102767.94;;;-6.00;81.14
59787;BME280;45672;51.612;5.536;2024-01-10T05:11:36;102756.72;;;-6.03;81.33
59787;BME280;45672;51.612;5.536;2024-01-10T05:14:02;102766.22;;;-6.01;80.87
59787;BME280;45672;51.612;5.536;2024-01-10T05:16:28;102764.50;;;-6.02;81.61
59787;BME280;45672;51.612;5.536;2024-01-10T05:18:53;102777.44;;;-6.00;80.55
59787;BME280;45672;51.612;5.536;2024-01-10T05:21:18;102763.63;;;-5.98;80.27
59787;BME280;45672;51.612;5.536;2024-01-10T05:23:44;102761.91;;;-6.02;80.93
59787;BME280;45672;51.612;5.536;2024-01-10T05:26:09;102752.41;;;-6.04;80.47
59787;BME280;45672;51.612;5.536;2024-01-10T05:28:35;102761.91;;;-6.07;80.57
59787;BME280;45672;51.612;5.536;2024-01-10T05:31:00;102762.78;;;-6.11;81.23
59787;BME280;45672;51.612;5.536;2024-01-10T05:33:26;102757.59;;;-6.11;81.79
59787;BME280;45672;51.612;5.536;2024-01-10T05:35:51;102759.31;;;-6.16;82.81
59787;BME280;45672;51.612;5.536;2024-01-10T05:38:17;102754.97;;;-6.17;82.74
59787;BME280;45672;51.612;5.536;2024-01-10T05:40:42;102754.13;;;-6.19;83.09
59787;BME280;45672;51.612;5.536;2024-01-10T05:43:07;102759.31;;;-6.22;83.43
59787;BME280;45672;51.612;5.536;2024-01-10T05:45:33;102751.53;;;-6.28;83.86
59787;BME280;45672;51.612;5.536;2024-01-10T05:47:58;102756.72;;;-6.28;85.02
59787;BME280;45672;51.612;5.536;2024-01-10T05:50:23;102762.78;;;-6.25;84.50
59787;BME280;45672;51.612;5.536;2024-01-10T05:52:49;102766.22;;;-6.27;84.74
59787;BME280;45672;51.612;5.536;2024-01-10T05:55:14;102760.19;;;-6.31;84.87
59787;BME280;45672;51.612;5.536;2024-01-10T05:57:40;102767.97;;;-6.31;85.14
59787;BME280;45672;51.612;5.536;2024-01-10T06:00:06;102771.41;;;-6.36;85.57
59787;BME280;45672;51.612;5.536;2024-01-10T06:02:36;102760.16;;;-6.37;85.25
59787;BME280;45672;51.612;5.536;2024-01-10T06:05:07;102767.06;;;-6.36;84.84
59787;BME280;45672;51.612;5.536;2024-01-10T06:07:36;102756.72;;;-6.41;85.57
59787;BME280;45672;51.612;5.536;2024-01-10T06:10:02;102762.75;;;-6.37;85.00
59787;BME280;45672;51.612;5.536;2024-01-10T06:12:28;102774.00;;;-6.38;85.02
59787;BME280;45672;51.612;5.536;2024-01-10T06:14:53;102767.94;;;-6.42;85.50
59787;BME280;45672;51.612;5.536;2024-01-10T06:17:19;102762.75;;;-6.43;86.57
59787;BME280;45672;51.612;5.536;2024-01-10T06:19:44;102761.06;;;-6.39;85.32
59787;BME280;45672;51.612;5.536;2024-01-10T06:22:10;102754.13;;;-6.39;84.63
59787;BME280;45672;51.612;5.536;2024-01-10T06:24:37;102748.94;;;-6.37;84.21
59787;BME280;45672;51.612;5.536;2024-01-10T06:27:05;102744.63;;;-6.43;85.82
59787;BME280;45672;51.612;5.536;2024-01-10T06:29:31;102750.66;;;-6.44;86.01
59787;BME280;45672;51.612;5.536;2024-01-10T06:31:56;102751.50;;;-6.47;86.11
59787;BME280;45672;51.612;5.536;2024-01-10T06:34:23;102752.41;;;-6.38;84.92
59787;BME280;45672;51.612;5.536;2024-01-10T06:36:48;102756.69;;;-6.48;86.45
59787;BME280;45672;51.612;5.536;2024-01-10T06:39:13;102751.53;;;-6.50;86.41
59787;BME280;45672;51.612;5.536;2024-01-10T06:41:39;102745.50;;;-6.50;87.05
59787;BME280;45672;51.612;5.536;2024-01-10T06:44:05;102742.91;;;-6.52;86.57
59787;BME280;45672;51.612;5.536;2024-01-10T06:46:31;102748.06;;;-6.52;86.45
59787;BME280;45672;51.612;5.536;2024-01-10T06:48:57;102746.34;;;-6.61;87.68
59787;BME280;45672;51.612;5.536;2024-01-10T06:51:22;102750.63;;;-6.61;87.95
59787;BME280;45672;51.612;5.536;2024-01-10T06:53:48;102756.69;;;-6.59;87.58
59787;BME280;45672;51.612;5.536;2024-01-10T06:56:13;102748.94;;;-6.61;88.49
59787;BME280;45672;51.612;5.536;2024-01-10T06:58:39;102743.75;;;-6.57;87.21
59787;BME280;45672;51.612;5.536;2024-01-10T07:01:05;102748.06;;;-6.61;88.15
59787;BME280;45672;51.612;5.536;2024-01-10T07:03:31;102753.25;;;-6.55;87.84
59787;BME280;45672;51.612;5.536;2024-01-10T07:05:57;102759.28;;;-6.53;87.81
59787;BME280;45672;51.612;5.536;2024-01-10T07:08:25;102761.00;;;-6.61;89.08
59787;BME280;45672;51.612;5.536;2024-01-10T07:10:51;102765.31;;;-6.60;88.73
59787;BME280;45672;51.612;5.536;2024-01-10T07:13:16;102764.47;;;-6.62;90.13
59787;BME280;45672;51.612;5.536;2024-01-10T07:15:42;102748.06;;;-6.67;89.82
59787;BME280;45672;51.612;5.536;2024-01-10T07:18:07;102769.66;;;-6.62;89.99
59787;BME280;45672;51.612;5.536;2024-01-10T07:20:33;102773.09;;;-6.63;89.24
59787;BME280;45672;51.612;5.536;2024-01-10T07:22:58;102767.06;;;-6.62;90.05
59787;BME280;45672;51.612;5.536;2024-01-10T07:25:24;102773.09;;;-6.62;90.01
59787;BME280;45672;51.612;5.536;2024-01-10T07:27:51;102779.13;;;-6.61;89.41
59787;BME280;45672;51.612;5.536;2024-01-10T07:30:16;102766.16;;;-6.67;89.47
59787;BME280;45672;51.612;5.536;2024-01-10T07:32:42;102777.41;;;-6.59;89.41
59787;BME280;45672;51.612;5.536;2024-01-10T07:35:08;102771.34;;;-6.66;90.24
59787;BME280;45672;51.612;5.536;2024-01-10T07:37:37;102765.31;;;-6.66;90.06
59787;BME280;45672;51.612;5.536;2024-01-10T07:40:04;102771.34;;;-6.60;88.81
59787;BME280;45672;51.612;5.536;2024-01-10T07:42:33;102753.22;;;-6.66;89.04
59787;BME280;45672;51.612;5.536;2024-01-10T07:45:00;102756.66;;;-6.65;89.55
59787;BME280;45672;51.612;5.536;2024-01-10T07:47:25;102761.00;;;-6.66;90.37
59787;BME280;45672;51.612;5.536;2024-01-10T07:49:50;102767.03;;;-6.64;90.86
59787;BME280;45672;51.612;5.536;2024-01-10T07:52:16;102750.63;;;-6.61;90.72
59787;BME280;45672;51.612;5.536;2024-01-10T07:54:42;102740.31;;;-6.56;90.24
59787;BME280;45672;51.612;5.536;2024-01-10T07:57:07;102742.03;;;-6.60;89.80
59787;BME280;45672;51.612;5.536;2024-01-10T07:59:33;102749.78;;;-6.57;90.29
59787;BME280;45672;51.612;5.536;2024-01-10T08:01:59;102740.31;;;-6.55;89.74
59787;BME280;45672;51.612;5.536;2024-01-10T08:04:26;102742.03;;;-6.51;89.94
59787;BME280;45672;51.612;5.536;2024-01-10T08:06:51;102740.31;;;-6.55;90.18
59787;BME280;45672;51.612;5.536;2024-01-10T08:09:17;102742.91;;;-6.56;90.08
59787;BME280;45672;51.612;5.536;2024-01-10T08:11:44;102756.69;;;-6.50;90.60
59787;BME280;45672;51.612;5.536;2024-01-10T08:14:10;102751.50;;;-6.48;91.30
59787;BME280;45672;51.612;5.536;2024-01-10T08:16:35;102760.16;;;-6.38;90.86
59787;BME280;45672;51.612;5.536;2024-01-10T08:19:00;102761.91;;;-6.34;90.60
59787;BME280;45672;51.612;5.536;2024-01-10T08:21:26;102761.03;;;-6.32;90.07
59787;BME280;45672;51.612;5.536;2024-01-10T08:23:51;102761.88;;;-6.28;89.93
59787;BME280;45672;51.612;5.536;2024-01-10T08:26:16;102759.31;;;-6.27;90.46
59787;BME280;45672;51.612;5.536;2024-01-10T08:28:41;102769.63;;;-5.94;90.46
59787;BME280;45672;51.612;5.536;2024-01-10T08:31:08;102768.75;;;-5.68;89.50
59787;BME280;45672;51.612;5.536;2024-01-10T08:33:33;102756.59;;;-5.51;88.49
59787;BME280;45672;51.612;5.536;2024-01-10T08:35:59;102760.00;;;-5.35;88.29
59787;BME280;45672;51.612;5.536;2024-01-10T08:38:24;102752.94;;;-4.99;87.34
59787;BME280;45672;51.612;5.536;2024-01-10T08:40:50;102759.91;;;-5.06;86.88
59787;BME280;45672;51.612;5.536;2024-01-10T08:43:15;102753.03;;;-5.22;86.60
59787;BME280;45672;51.612;5.536;2024-01-10T08:45:40;102754.78;;;-5.29;86.74
59787;BME280;45672;51.612;5.536;2024-01-10T08:48:06;102762.59;;;-5.37;87.12
59787;BME280;45672;51.612;5.536;2024-01-10T08:50:35;102759.16;;;-5.45;86.46
59787;BME280;45672;51.612;5.536;2024-01-10T08:53:01;102751.38;;;-5.45;85.83
59787;BME280;45672;51.612;5.536;2024-01-10T08:55:30;102754.88;;;-5.52;86.15
59787;BME280;45672;51.612;5.536;2024-01-10T08:57:55;102754.00;;;-5.59;86.51
59787;BME280;45672;51.612;5.536;2024-01-10T09:00:21;102758.34;;;-5.58;86.70
59787;BME280;45672;51.612;5.536;2024-01-10T09:02:46;102750.56;;;-5.56;85.82
59787;BME280;45672;51.612;5.536;2024-01-10T09:05:11;102769.56;;;-5.45;86.53
59787;BME280;45672;51.612;5.536;2024-01-10T09:07:37;102766.94;;;-5.42;85.31
59787;BME280;45672;51.612;5.536;2024-01-10T09:10:03;102768.66;;;-5.33;85.92
59787;BME280;45672;51.612;5.536;2024-01-10T09:12:30;102768.59;;;-5.21;85.08
59787;BME280;45672;51.612;5.536;2024-01-10T09:17:31;102765.13;;;-5.09;84.47
59787;BME280;45672;51.612;5.536;2024-01-10T09:19:56;102768.47;;;-4.90;84.15
59787;BME280;45672;51.612;5.536;2024-01-10T09:22:22;102777.66;;;-4.35;82.48
59787;BME280;45672;51.612;5.536;2024-01-10T09:24:48;102771.47;;;-4.18;80.74
59787;BME280;45672;51.612;5.536;2024-01-10T09:27:13;102774.22;;;-4.38;80.45
59787;BME280;45672;51.612;5.536;2024-01-10T09:29:38;102775.06;;;-4.35;81.42
59787;BME280;45672;51.612;5.536;2024-01-10T09:32:04;102780.00;;;-4.01;80.63
59787;BME280;45672;51.612;5.536;2024-01-10T09:34:29;102779.00;;;-3.87;79.01
59787;BME280;45672;51.612;5.536;2024-01-10T09:36:55;102780.91;;;-4.05;77.84
59787;BME280;45672;51.612;5.536;2024-01-10T09:39:20;102786.31;;;-4.34;79.96
59787;BME280;45672;51.612;5.536;2024-01-10T09:41:48;102796.78;;;-4.48;80.67
59787;BME280;45672;51.612;5.536;2024-01-10T09:44:21;102792.50;;;-4.52;79.84
59787;BME280;45672;51.612;5.536;2024-01-10T09:46:52;102789.91;;;-4.54;81.67
59787;BME280;45672;51.612;5.536;2024-01-10T09:49:18;102795.16;;;-4.60;80.88
59787;BME280;45672;51.612;5.536;2024-01-10T09:51:45;102793.41;;;-4.55;78.73
59787;BME280;45672;51.612;5.536;2024-01-10T09:54:13;102791.69;;;-4.65;79.07
59787;BME280;45672;51.612;5.536;2024-01-10T09:56:41;102795.16;;;-4.60;78.72
59787;BME280;45672;51.612;5.536;2024-01-10T09:59:07;102796.03;;;-4.65;78.92
59787;BME280;45672;51.612;5.536;2024-01-10T10:01:36;102789.97;;;-4.61;78.80
59787;BME280;45672;51.612;5.536;2024-01-10T10:04:02;102787.19;;;-4.37;78.54
59787;BME280;45672;51.612;5.536;2024-01-10T10:06:27;102795.91;;;-4.44;76.31
59787;BME280;45672;51.612;5.536;2024-01-10T10:08:52;102784.66;;;-4.43;76.18
59787;BME280;45672;51.612;5.536;2024-01-10T10:11:18;102785.50;;;-4.44;76.44
59787;BME280;45672;51.612;5.536;2024-01-10T10:13:43;102785.44;;;-4.31;75.51
59787;BME280;45672;51.612;5.536;2024-01-10T10:16:09;102775.03;;;-4.30;76.02
59787;BME280;45672;51.612;5.536;2024-01-10T10:18:35;102786.19;;;-4.16;74.28
59787;BME280;45672;51.612;5.536;2024-01-10T10:21:14;102787.94;;;-4.21;75.43
59787;BME280;45672;51.612;5.536;2024-01-10T10:23:41;102787.06;;;-4.18;75.07
59787;BME280;45672;51.612;5.536;2024-01-10T10:26:16;102784.44;;;-4.12;75.42
59787;BME280;45672;51.612;5.536;2024-01-10T10:28:49;102786.16;;;-4.12;75.09
59787;BME280;45672;51.612;5.536;2024-01-10T10:31:18;102777.41;;;-4.05;74.83
59787;BME280;45672;51.612;5.536;2024-01-10T10:33:45;102771.34;;;-4.03;75.64
59787;BME280;45672;51.612;5.536;2024-01-10T10:36:10;102782.50;;;-3.90;74.78
59787;BME280;45672;51.612;5.536;2024-01-10T10:38:36;102772.97;;;-3.89;74.37
59787;BME280;45672;51.612;5.536;2024-01-10T10:41:05;102772.09;;;-3.90;73.80
59787;BME280;45672;51.612;5.536;2024-01-10T10:43:34;102768.56;;;-3.84;73.19
59787;BME280;45672;51.612;5.536;2024-01-10T10:46:08;102769.41;;;-3.81;73.29
59787;BME280;45672;51.612;5.536;2024-01-10T10:48:35;102757.28;;;-3.80;73.84
59787;BME280;45672;51.612;5.536;2024-01-10T10:51:06;102767.63;;;-3.72;72.45
59787;BME280;45672;51.612;5.536;2024-01-10T10:53:36;102773.63;;;-3.67;72.54
59787;BME280;45672;51.612;5.536;2024-01-10T10:56:03;102768.38;;;-3.64;71.24
59787;BME280;45672;51.612;5.536;2024-01-10T10:58:34;102765.75;;;-3.63;73.17
59787;BME280;45672;51.612;5.536;2024-01-10T11:01:02;102764.84;;;-3.58;72.60
59787;BME280;45672;51.612;5.536;2024-01-10T11:03:28;102760.50;;;-3.56;72.23
59787;BME280;45672;51.612;5.536;2024-01-10T11:05:57;102760.50;;;-3.56;72.36
59787;BME280;45672;51.612;5.536;2024-01-10T11:08:24;102766.47;;;-3.47;71.99
59787;BME280;45672;51.612;5.536;2024-01-10T11:10:51;102762.94;;;-3.44;71.46
59787;BME280;45672;51.612;5.536;2024-01-10T11:18:54;102755.78;;;-3.22;71.36
59787;BME280;45672;51.612;5.536;2024-01-10T11:24:12;102746.22;;;-3.20;70.17
59787;BME280;45672;51.612;5.536;2024-01-10T11:26:38;102747.84;;;-3.13;70.32
59787;BME280;45672;51.612;5.536;2024-01-10T11:29:04;102738.28;;;-3.12;69.66
59787;BME280;45672;51.612;5.536;2024-01-10T11:31:31;102752.13;;;-3.08;70.74
59787;BME280;45672;51.612;5.536;2024-01-10T11:33:58;102745.97;;;-3.03;69.04
59787;BME280;45672;51.612;5.536;2024-01-10T11:36:24;102750.25;;;-2.96;70.44
59787;BME280;45672;51.612;5.536;2024-01-10T11:46:34;102737.81;;;-2.77;68.79
59787;BME280;45672;51.612;5.536;2024-01-10T11:48:59;102736.81;;;-2.68;67.37
59787;BME280;45672;51.612;5.536;2024-01-10T11:51:25;102740.22;;;-2.63;68.14
59787;BME280;45672;51.612;5.536;2024-01-10T11:53:50;102745.44;;;-2.63;68.46
59787;BME280;45672;51.612;5.536;2024-01-10T11:56:18;102739.31;;;-2.60;68.41
59787;BME280;45672;51.612;5.536;2024-01-10T11:59:02;102740.06;;;-2.53;67.77
59787;BME280;45672;51.612;5.536;2024-01-10T12:01:30;102733.06;;;-2.48;67.89
59787;BME280;45672;51.612;5.536;2024-01-10T12:03:57;102733.75;;;-2.37;66.10
59787;BME280;45672;51.612;5.536;2024-01-10T12:06:23;102733.81;;;-2.41;66.37
59787;BME280;45672;51.612;5.536;2024-01-10T12:08:50;102734.66;;;-2.41;66.91
59787;BME280;45672;51.612;5.536;2024-01-10T12:11:16;102729.41;;;-2.38;67.30
59787;BME280;45672;51.612;5.536;2024-01-10T12:13:45;102721.44;;;-2.29;69.29
59787;BME280;45672;51.612;5.536;2024-01-10T12:16:14;102720.50;;;-2.24;67.16
59787;BME280;45672;51.612;5.536;2024-01-10T12:18:41;102726.56;;;-2.22;66.60
59787;BME280;45672;51.612;5.536;2024-01-10T12:21:07;102718.66;;;-2.19;66.97
59787;BME280;45672;51.612;5.536;2024-01-10T12:23:37;102717.78;;;-2.18;66.26
59787;BME280;45672;51.612;5.536;2024-01-10T12:26:04;102719.47;;;-2.14;66.49
59787;BME280;45672;51.612;5.536;2024-01-10T12:28:32;102715.97;;;-2.13;66.02
59787;BME280;45672;51.612;5.536;2024-01-10T12:30:58;102722.06;;;-2.14;65.10
59787;BME280;45672;51.612;5.536;2024-01-10T12:33:24;102716.78;;;-2.11;65.80
59787;BME280;45672;51.612;5.536;2024-01-10T12:36:09;102719.22;;;-2.00;67.34
59787;BME280;45672;51.612;5.536;2024-01-10T12:38:35;102717.50;;;-2.01;65.25
59787;BME280;45672;51.612;5.536;2024-01-10T12:41:01;102718.19;;;-1.92;66.19
59787;BME280;45672;51.612;5.536;2024-01-10T12:43:28;102706.94;;;-1.95;64.83
59787;BME280;45672;51.612;5.536;2024-01-10T12:46:03;102716.41;;;-1.89;66.23
59787;BME280;45672;51.612;5.536;2024-01-10T12:48:30;102709.47;;;-1.89;64.33
59787;BME280;45672;51.612;5.536;2024-01-10T12:50:55;102712.91;;;-1.88;64.82
59787;BME280;45672;51.612;5.536;2024-01-10T12:53:20;102711.94;;;-1.83;64.86
59787;BME280;45672;51.612;5.536;2024-01-10T12:55:46;102724.09;;;-1.80;65.18
59787;BME280;45672;51.612;5.536;2024-01-10T12:58:11;102717.84;;;-1.73;64.53
59787;BME280;45672;51.612;5.536;2024-01-10T13:00:37;102717.66;;;-1.64;64.08
59787;BME280;45672;51.612;5.536;2024-01-10T13:03:03;102720.31;;;-1.65;64.15